createdAt,value
2018-09-20T00:01:32.175Z,71.30
2018-09-20T00:04:01.043Z,71.80
2018-09-20T00:06:29.904Z,72.10
2018-09-20T00:08:58.708Z,72.50
2018-09-20T00:11:27.566Z,72.00
2018-09-20T00:13:56.343Z,72.00
2018-09-20T00:16:25.196Z,72.10
2018-09-20T00:18:53.987Z,71.90
2018-09-20T00:21:22.799Z,71.70
2018-09-20T00:23:51.608Z,71.90
2018-09-20T00:26:20.484Z,71.70
2018-09-20T00:28:49.338Z,71.40
2018-09-20T00:31:18.147Z,71.80
2018-09-20T00:33:47.000Z,72.00
2018-09-20T00:36:15.808Z,72.00
2018-09-20T00:38:44.644Z,71.90
2018-09-20T00:41:13.540Z,71.60
2018-09-20T00:44:04.145Z,72.40
2018-09-20T00:46:33.008Z,72.80
2018-09-20T00:49:01.752Z,72.70
2018-09-20T00:51:30.569Z,73.50
2018-09-20T00:53:59.328Z,72.30
2018-09-20T00:56:28.137Z,72.80
2018-09-20T00:58:57.048Z,72.60
2018-09-20T01:01:26.028Z,73.40
2018-09-20T01:03:54.844Z,73.20
2018-09-20T01:06:24.435Z,72.80
2018-09-20T01:08:53.297Z,73.10
2018-09-20T01:11:22.216Z,73.40
2018-09-20T01:13:51.046Z,73.50
2018-09-20T01:16:19.815Z,73.80
2018-09-20T01:18:48.624Z,73.80
2018-09-20T01:21:17.405Z,74.10
2018-09-20T01:23:46.229Z,74.20
2018-09-20T01:26:15.022Z,74.40
2018-09-20T01:28:43.809Z,74.90
2018-09-20T01:31:12.599Z,74.20
2018-09-20T01:33:41.421Z,74.60
2018-09-20T01:36:10.240Z,75.10
2018-09-20T01:38:39.033Z,76.00
2018-09-20T01:41:07.844Z,76.20
2018-09-20T01:43:36.657Z,76.50
2018-09-20T01:46:05.473Z,76.30
2018-09-20T01:48:34.306Z,76.00
2018-09-20T01:51:03.092Z,76.10
2018-09-20T01:53:31.892Z,75.70
2018-09-20T01:56:00.695Z,75.10
2018-09-20T01:58:29.480Z,75.90
2018-09-20T02:00:58.295Z,76.60
2018-09-20T02:03:27.112Z,76.20
2018-09-20T02:05:55.870Z,76.30
2018-09-20T02:08:24.681Z,75.50
2018-09-20T02:10:53.464Z,75.60
2018-09-20T02:13:22.292Z,75.70
2018-09-20T02:15:51.111Z,76.50
2018-09-20T02:18:19.915Z,76.30
2018-09-20T02:20:48.729Z,76.70
2018-09-20T02:23:17.532Z,77.00
2018-09-20T02:25:46.355Z,77.00
2018-09-20T02:28:15.149Z,76.70
2018-09-20T02:30:43.944Z,76.50
2018-09-20T02:33:12.745Z,76.30
2018-09-20T02:35:41.559Z,75.70
2018-09-20T02:38:10.416Z,75.50
2018-09-20T02:40:39.233Z,75.70
2018-09-20T02:43:08.068Z,75.70
2018-09-20T02:45:36.923Z,75.50
2018-09-20T02:48:05.749Z,74.90
2018-09-20T02:50:34.595Z,75.00
2018-09-20T02:53:03.391Z,75.60
2018-09-20T02:55:32.166Z,76.00
2018-09-20T02:58:00.911Z,76.40
2018-09-20T03:00:29.715Z,76.70
2018-09-20T03:02:58.592Z,76.10
2018-09-20T03:05:27.412Z,76.80
2018-09-20T03:07:56.246Z,77.50
2018-09-20T03:10:25.008Z,78.00
2018-09-20T03:12:53.790Z,77.90
2018-09-20T03:15:22.674Z,78.30
2018-09-20T03:17:51.480Z,77.90
2018-09-20T03:20:20.278Z,78.10
2018-09-20T03:22:49.024Z,78.10
2018-09-20T03:25:17.920Z,78.10
2018-09-20T03:27:46.726Z,77.70
2018-09-20T03:30:15.582Z,78.50
2018-09-20T03:32:44.443Z,78.20
2018-09-20T03:35:13.232Z,78.10
2018-09-20T03:37:42.039Z,78.50
2018-09-20T03:40:10.932Z,78.90
2018-09-20T03:42:39.731Z,78.80
2018-09-20T03:45:08.824Z,78.80
2018-09-20T03:47:37.641Z,80.00
2018-09-20T03:50:06.793Z,78.90
2018-09-20T03:52:35.693Z,79.20
2018-09-20T03:55:04.672Z,79.80
2018-09-20T03:57:33.433Z,80.10
2018-09-20T04:00:02.268Z,79.10
2018-09-20T04:02:31.032Z,78.90
2018-09-20T04:05:06.864Z,77.70
2018-09-20T04:07:35.660Z,77.70
2018-09-20T04:10:04.616Z,77.50
2018-09-20T04:12:34.386Z,77.90
2018-09-20T04:15:03.196Z,78.60
2018-09-20T04:17:32.028Z,78.30
2018-09-20T04:20:00.807Z,78.90
2018-09-20T04:22:29.636Z,79.40
2018-09-20T04:24:58.459Z,79.60
2018-09-20T04:27:27.241Z,79.50
2018-09-20T04:29:56.101Z,80.40
2018-09-20T04:32:24.910Z,80.20
2018-09-20T04:34:53.767Z,79.60
2018-09-20T04:37:22.590Z,80.10
2018-09-20T04:39:51.372Z,79.70
2018-09-20T04:42:20.204Z,79.90
2018-09-20T04:44:49.024Z,80.70
2018-09-20T04:47:17.832Z,81.40
2018-09-20T04:49:46.650Z,80.60
2018-09-20T04:52:15.440Z,81.40
2018-09-20T04:54:44.274Z,80.40
2018-09-20T04:57:14.414Z,81.40
2018-09-20T04:59:43.699Z,81.80
2018-09-20T05:02:14.810Z,82.20
2018-09-20T05:04:43.706Z,83.00
2018-09-20T05:07:12.864Z,81.80
2018-09-20T05:09:41.664Z,82.80
2018-09-20T05:12:10.452Z,82.10
2018-09-20T05:14:39.413Z,82.10
2018-09-20T05:17:08.504Z,82.90
2018-09-20T05:19:37.361Z,82.70
2018-09-20T05:22:06.481Z,83.20
2018-09-20T05:24:35.520Z,83.20
2018-09-20T05:27:04.377Z,82.50
2018-09-20T05:29:33.476Z,83.60
2018-09-20T05:32:02.308Z,82.70
2018-09-20T05:34:31.111Z,84.00
2018-09-20T05:36:59.867Z,85.00
2018-09-20T05:39:28.968Z,84.60
2018-09-20T05:41:57.732Z,84.40
2018-09-20T05:44:26.588Z,84.00
2018-09-20T05:46:55.721Z,84.50
2018-09-20T05:49:24.520Z,84.00
2018-09-20T05:51:53.364Z,83.90
2018-09-20T05:54:22.244Z,83.90
2018-09-20T05:56:51.043Z,84.20
2018-09-20T05:59:19.903Z,85.50
2018-09-20T06:01:49.156Z,84.90
2018-09-20T06:04:18.273Z,84.30
2018-09-20T06:06:47.056Z,85.80
2018-09-20T06:09:15.857Z,85.30
2018-09-20T06:11:44.646Z,85.50
2018-09-20T06:14:13.770Z,86.10
2018-09-20T06:16:42.593Z,85.50
2018-09-20T06:19:11.404Z,86.60
2018-09-20T06:21:40.477Z,87.30
2018-09-20T06:24:09.570Z,86.90
2018-09-20T06:26:38.643Z,87.70
2018-09-20T06:29:07.806Z,88.30
2018-09-20T06:31:36.936Z,88.40
2018-09-20T06:34:06.232Z,88.50
2018-09-20T06:36:35.447Z,87.40
2018-09-20T06:39:06.263Z,88.50
2018-09-20T06:41:35.312Z,89.70
2018-09-20T06:44:04.564Z,90.00
2018-09-20T06:46:33.825Z,90.00
2018-09-20T06:49:02.852Z,90.00
2018-09-20T06:51:32.105Z,89.30
2018-09-20T06:54:01.300Z,90.40
2018-09-20T06:56:30.246Z,90.30
2018-09-20T06:58:59.332Z,90.40
2018-09-20T07:01:28.425Z,90.30
2018-09-20T07:03:57.625Z,90.00
2018-09-20T07:06:26.491Z,90.40
2018-09-20T07:08:55.304Z,90.10
2018-09-20T07:11:24.093Z,90.20
2018-09-20T07:13:52.933Z,90.60
2018-09-20T07:16:21.952Z,90.40
2018-09-20T07:18:51.125Z,90.00
2018-09-20T07:21:20.013Z,89.00
2018-09-20T07:23:49.047Z,88.90
2018-09-20T07:26:18.079Z,89.60
2018-09-20T07:28:47.156Z,88.90
2018-09-20T07:31:15.996Z,88.10
2018-09-20T07:33:45.150Z,89.20
2018-09-20T07:36:13.914Z,90.00
2018-09-20T07:38:42.747Z,89.30
2018-09-20T07:41:11.880Z,87.70
2018-09-20T07:43:40.792Z,88.30
2018-09-20T07:46:09.589Z,88.40
2018-09-20T07:48:38.384Z,88.20
2018-09-20T07:51:07.245Z,88.00
2018-09-20T07:53:36.083Z,87.70
2018-09-20T07:56:04.994Z,87.00
2018-09-20T07:58:33.795Z,87.10
2018-09-20T08:01:02.608Z,86.70
2018-09-20T08:03:31.400Z,87.10
2018-09-20T08:06:00.196Z,88.30
2018-09-20T08:08:29.174Z,87.90
2018-09-20T08:10:57.963Z,86.10
2018-09-20T08:13:26.772Z,87.40
2018-09-20T08:15:55.684Z,85.10
2018-09-20T08:18:24.472Z,85.60
2018-09-20T08:20:53.324Z,85.20
2018-09-20T08:23:22.137Z,86.50
2018-09-20T08:25:50.957Z,85.40
2018-09-20T08:28:19.747Z,84.00
2018-09-20T08:30:48.525Z,84.60
2018-09-20T08:33:17.370Z,84.00
2018-09-20T08:35:46.206Z,84.50
2018-09-20T08:38:14.998Z,84.60
2018-09-20T08:40:43.777Z,82.90
2018-09-20T08:43:12.559Z,83.60
2018-09-20T08:45:41.343Z,83.70
2018-09-20T08:48:10.128Z,83.30
2018-09-20T08:50:38.985Z,83.50
2018-09-20T08:53:07.787Z,84.00
2018-09-20T08:55:36.581Z,83.10
2018-09-20T08:58:05.528Z,83.80
2018-09-20T09:00:34.372Z,84.40
2018-09-20T09:03:03.217Z,82.60
2018-09-20T09:05:32.017Z,83.40
2018-09-20T09:08:00.804Z,82.70
2018-09-20T09:10:29.640Z,82.90
2018-09-20T09:12:58.413Z,83.50
2018-09-20T09:15:27.325Z,81.30
2018-09-20T09:17:56.135Z,81.40
2018-09-20T09:20:24.944Z,80.60
2018-09-20T09:22:53.741Z,80.60
2018-09-20T09:25:22.609Z,80.80
2018-09-20T09:27:51.485Z,79.30
2018-09-20T09:30:20.369Z,78.90
2018-09-20T09:32:49.164Z,78.90
2018-09-20T09:35:18.004Z,80.10
2018-09-20T09:37:46.804Z,78.30
2018-09-20T09:40:15.631Z,77.30
2018-09-20T09:42:44.416Z,77.30
2018-09-20T09:45:13.246Z,77.10
2018-09-20T09:47:42.071Z,78.40
2018-09-20T09:50:10.933Z,77.50
2018-09-20T09:52:39.760Z,76.60
2018-09-20T09:55:08.563Z,77.70
2018-09-20T09:57:37.353Z,77.50
2018-09-20T10:00:06.293Z,77.30
2018-09-20T10:02:35.151Z,75.00
2018-09-20T10:05:03.963Z,76.00
2018-09-20T10:07:33.083Z,75.90
2018-09-20T10:10:01.851Z,75.10
2018-09-20T10:12:30.612Z,74.60
2018-09-20T10:14:59.511Z,75.20
2018-09-20T10:17:28.323Z,76.90
2018-09-20T10:19:57.150Z,78.30
2018-09-20T10:22:26.053Z,75.60
2018-09-20T10:24:54.880Z,76.90
2018-09-20T10:27:23.776Z,75.60
2018-09-20T10:29:52.625Z,76.50
2018-09-20T10:32:21.550Z,75.90
2018-09-20T10:34:50.391Z,76.70
2018-09-20T10:37:19.248Z,77.50
2018-09-20T10:39:54.785Z,77.50
2018-09-20T10:42:23.651Z,77.80
2018-09-20T10:44:52.527Z,77.60
2018-09-20T10:47:21.482Z,78.80
2018-09-20T10:49:50.338Z,76.90
2018-09-20T10:52:19.139Z,77.90
2018-09-20T10:54:47.971Z,76.80
2018-09-20T10:57:16.995Z,75.40
2018-09-20T10:59:45.838Z,75.90
2018-09-20T11:02:14.690Z,75.60
2018-09-20T11:04:43.643Z,74.30
2018-09-20T11:07:12.473Z,73.80
2018-09-20T11:09:41.384Z,74.60
2018-09-20T11:12:10.251Z,73.00
2018-09-20T11:14:39.123Z,74.00
2018-09-20T11:17:07.993Z,73.80
2018-09-20T11:19:36.803Z,72.60
2018-09-20T11:22:05.692Z,72.20
2018-09-20T11:24:34.479Z,72.60
2018-09-20T11:27:03.311Z,73.00
2018-09-20T11:29:32.128Z,72.50
2018-09-20T11:32:00.987Z,72.20
2018-09-20T11:34:29.846Z,71.20
2018-09-20T11:36:58.699Z,70.60
2018-09-20T11:39:27.528Z,70.90
2018-09-20T11:41:56.387Z,71.00
2018-09-20T11:44:25.252Z,71.40
2018-09-20T11:46:54.422Z,70.50
2018-09-20T11:49:23.573Z,69.30
2018-09-20T11:51:52.752Z,69.10
2018-09-20T11:54:21.535Z,68.20
2018-09-20T11:56:50.342Z,67.70
2018-09-20T11:59:19.198Z,67.70
2018-09-20T12:01:48.091Z,66.30
2018-09-20T12:04:16.845Z,65.80
2018-09-20T12:06:45.717Z,64.90
2018-09-20T12:09:14.529Z,65.90
2018-09-20T12:11:43.361Z,65.70
2018-09-20T12:14:12.174Z,65.60
2018-09-20T12:16:41.017Z,64.30
2018-09-20T12:19:09.811Z,64.10
2018-09-20T12:21:38.600Z,63.20
2018-09-20T12:24:07.402Z,64.30
2018-09-20T12:26:36.197Z,65.30
2018-09-20T12:29:05.398Z,62.40
2018-09-20T12:31:34.404Z,62.80
2018-09-20T12:34:03.485Z,63.60
2018-09-20T12:36:32.393Z,62.40
2018-09-20T12:39:01.180Z,63.30
2018-09-20T12:41:30.060Z,62.20
2018-09-20T12:43:58.828Z,60.40
2018-09-20T12:46:27.651Z,58.90
2018-09-20T12:48:56.504Z,58.50
2018-09-20T12:51:25.317Z,59.20
2018-09-20T12:53:55.631Z,59.70
2018-09-20T12:56:24.470Z,58.40
2018-09-20T12:58:53.305Z,57.80
2018-09-20T13:01:22.589Z,58.60
2018-09-20T13:03:51.858Z,57.60
2018-09-20T13:06:20.668Z,57.30
2018-09-20T13:08:49.491Z,56.50
2018-09-20T13:11:18.842Z,56.40
2018-09-20T13:13:48.038Z,57.40
2018-09-20T13:16:16.873Z,56.90
2018-09-20T13:18:45.819Z,57.00
2018-09-20T13:21:14.665Z,55.20
2018-09-20T13:23:43.478Z,53.10
2018-09-20T13:26:12.466Z,53.50
2018-09-20T13:28:41.321Z,53.90
2018-09-20T13:31:10.178Z,53.70
2018-09-20T13:33:38.996Z,54.10
2018-09-20T13:36:07.938Z,56.50
2018-09-20T13:38:36.880Z,56.10
2018-09-20T13:41:06.044Z,55.80
2018-09-20T13:43:34.986Z,54.70
2018-09-20T13:46:04.203Z,54.10
2018-09-20T13:48:33.360Z,54.80
2018-09-20T13:51:02.524Z,55.30
2018-09-20T13:53:31.748Z,54.50
2018-09-20T13:56:00.725Z,54.30
2018-09-20T13:58:29.732Z,54.70
2018-09-20T14:00:58.692Z,54.50
2018-09-20T14:03:27.744Z,54.30
2018-09-20T14:05:56.905Z,54.50
2018-09-20T14:09:11.234Z,55.10
2018-09-20T14:11:40.750Z,54.30
2018-09-20T14:14:09.668Z,54.80
2018-09-20T14:16:38.701Z,55.20
2018-09-20T14:19:07.691Z,55.40
2018-09-20T14:21:36.885Z,55.10
2018-09-20T14:24:05.792Z,54.60
2018-09-20T14:26:34.689Z,54.60
2018-09-20T14:29:03.548Z,54.70
2018-09-20T14:31:32.404Z,54.10
2018-09-20T14:34:01.224Z,54.40
2018-09-20T14:36:30.322Z,53.40
2018-09-20T14:38:59.242Z,53.10
2018-09-20T14:41:28.086Z,53.60
2018-09-20T14:43:56.905Z,53.20
2018-09-20T14:46:25.725Z,52.60
2018-09-20T14:48:54.721Z,53.10
2018-09-20T14:51:23.579Z,54.60
2018-09-20T14:53:52.379Z,54.60
2018-09-20T14:56:21.277Z,54.90
2018-09-20T14:58:50.874Z,54.60
2018-09-20T15:01:19.703Z,54.40
2018-09-20T15:03:48.561Z,54.50
2018-09-20T15:06:17.470Z,53.70
2018-09-20T15:08:46.342Z,55.30
2018-09-20T15:11:15.317Z,54.40
2018-09-20T15:13:44.169Z,53.70
2018-09-20T15:16:12.989Z,53.40
2018-09-20T15:18:41.910Z,54.10
2018-09-20T15:21:10.812Z,54.30
2018-09-20T15:23:39.607Z,54.00
2018-09-20T15:26:09.577Z,53.60
2018-09-20T15:28:38.389Z,54.00
2018-09-20T15:31:07.404Z,53.40
2018-09-20T15:33:36.541Z,53.30
2018-09-20T15:36:05.384Z,53.40
2018-09-20T15:38:34.168Z,53.80
2018-09-20T15:41:03.170Z,54.20
2018-09-20T15:43:32.011Z,53.30
2018-09-20T15:46:01.284Z,53.30
2018-09-20T15:48:30.563Z,52.70
2018-09-20T15:50:59.440Z,52.90
2018-09-20T15:53:28.248Z,52.80
2018-09-20T15:55:57.349Z,52.50
2018-09-20T15:58:26.481Z,51.90
2018-09-20T16:00:55.636Z,51.90
2018-09-20T16:03:24.631Z,51.80
2018-09-20T16:05:53.645Z,51.70
2018-09-20T16:08:22.808Z,51.40
2018-09-20T16:10:52.000Z,52.20
2018-09-20T16:13:21.003Z,53.20
2018-09-20T16:15:50.085Z,54.30
2018-09-20T16:18:19.281Z,54.00
2018-09-20T16:20:48.488Z,54.40
2018-09-20T16:23:17.393Z,55.50
2018-09-20T16:25:46.598Z,55.10
2018-09-20T16:28:36.460Z,55.60
2018-09-20T16:31:24.021Z,54.90
2018-09-20T16:34:42.221Z,55.00
2018-09-20T16:37:30.241Z,55.60
2018-09-20T16:40:02.370Z,55.50
2018-09-20T16:42:36.237Z,56.00
2018-09-20T16:45:05.451Z,56.00
2018-09-20T16:47:34.553Z,56.10
2018-09-20T16:50:03.369Z,56.10
2018-09-20T16:52:32.521Z,56.10
2018-09-20T16:55:01.686Z,56.10
2018-09-20T16:57:30.751Z,56.20
2018-09-20T16:59:59.790Z,56.30
2018-09-20T17:02:28.612Z,56.20
2018-09-20T17:04:57.755Z,56.30
2018-09-20T17:07:27.125Z,56.50
2018-09-20T17:09:56.311Z,56.60
2018-09-20T17:12:25.153Z,56.60
2018-09-20T17:14:54.398Z,57.00
2018-09-20T17:17:23.657Z,57.10
2018-09-20T17:19:52.876Z,57.40
2018-09-20T17:22:21.796Z,57.40
2018-09-20T17:24:50.847Z,57.40
2018-09-20T17:27:19.934Z,57.30
2018-09-20T17:29:49.136Z,57.40
2018-09-20T17:32:18.331Z,57.40
2018-09-20T17:34:48.062Z,57.50
2018-09-20T17:37:19.626Z,57.60
2018-09-20T17:39:50.943Z,57.70
2018-09-20T17:42:21.317Z,57.90
2018-09-20T17:44:50.164Z,58.00
2018-09-20T17:47:19.027Z,58.10
2018-09-20T17:49:48.259Z,58.20
2018-09-20T17:52:18.036Z,58.20
2018-09-20T17:54:48.045Z,58.10
2018-09-20T17:57:18.063Z,58.20
2018-09-20T17:59:47.302Z,58.20
2018-09-20T18:02:16.192Z,58.30
2018-09-20T18:04:45.139Z,58.30
2018-09-20T18:07:14.279Z,58.40
2018-09-20T18:09:43.402Z,58.30
2018-09-20T18:12:12.337Z,58.50
2018-09-20T18:14:41.149Z,58.60
2018-09-20T18:17:10.001Z,58.70
2018-09-20T18:19:39.031Z,58.70
2018-09-20T18:22:08.354Z,58.50
2018-09-20T18:24:37.156Z,58.80
2018-09-20T18:27:05.922Z,58.90
2018-09-20T18:29:35.029Z,59.10
2018-09-20T18:32:03.952Z,59.20
2018-09-20T18:34:32.794Z,59.30
2018-09-20T18:37:01.600Z,59.30
2018-09-20T18:39:30.653Z,59.40
2018-09-20T18:41:59.660Z,59.50
2018-09-20T18:44:28.660Z,59.50
2018-09-20T18:46:57.765Z,59.90
2018-09-20T18:49:26.636Z,59.90
2018-09-20T18:51:55.485Z,59.90
2018-09-20T18:54:24.393Z,60.40
2018-09-20T18:56:53.257Z,61.00
2018-09-20T18:59:22.167Z,61.10
2018-09-20T19:01:50.965Z,61.00
2018-09-20T19:04:19.753Z,61.20
2018-09-20T19:06:48.550Z,61.50
2018-09-20T19:09:17.428Z,61.20
2018-09-20T19:11:46.275Z,61.80
2018-09-20T19:14:15.072Z,62.20
2018-09-20T19:16:43.865Z,63.00
2018-09-20T19:19:13.055Z,62.80
2018-09-20T19:21:41.831Z,62.70
2018-09-20T19:24:10.685Z,62.50
2018-09-20T19:26:39.544Z,62.90
2018-09-20T19:29:08.368Z,62.70
2018-09-20T19:31:37.201Z,63.40
2018-09-20T19:34:05.979Z,63.50
2018-09-20T19:36:34.886Z,64.00
2018-09-20T19:39:04.438Z,64.10
2018-09-20T19:41:33.300Z,64.40
2018-09-20T19:44:02.122Z,64.60
2018-09-20T19:46:30.982Z,64.60
2018-09-20T19:48:59.898Z,64.10
2018-09-20T19:51:28.728Z,64.90
2018-09-20T19:53:57.839Z,63.40
2018-09-20T19:56:26.692Z,63.40
2018-09-20T19:58:55.800Z,63.30
2018-09-20T20:01:24.664Z,63.60
2018-09-20T20:03:53.441Z,63.70
2018-09-20T20:06:22.492Z,64.00
2018-09-20T20:08:51.708Z,64.20
2018-09-20T20:11:20.818Z,64.20
2018-09-20T20:13:49.875Z,64.50
2018-09-20T20:16:18.696Z,64.40
2018-09-20T20:18:47.492Z,64.20
2018-09-20T20:21:16.299Z,63.80
2018-09-20T20:23:45.115Z,63.40
2018-09-20T20:26:14.018Z,64.00
2018-09-20T20:28:42.787Z,64.10
2018-09-20T20:31:11.633Z,63.80
2018-09-20T20:33:40.737Z,63.80
2018-09-20T20:36:09.586Z,64.00
2018-09-20T20:38:38.417Z,63.90
2018-09-20T20:41:07.247Z,64.00
2018-09-20T20:43:36.115Z,63.70
2018-09-20T20:46:04.948Z,63.60
2018-09-20T20:48:33.792Z,63.70
2018-09-20T20:51:02.664Z,63.80
2018-09-20T20:53:31.505Z,63.80
2018-09-20T20:56:00.305Z,63.80
2018-09-20T20:58:29.199Z,63.60
2018-09-20T21:00:57.997Z,63.40
2018-09-20T21:03:26.776Z,63.90
2018-09-20T21:05:55.551Z,64.80
2018-09-20T21:08:24.413Z,64.60
2018-09-20T21:10:53.240Z,64.40
2018-09-20T21:13:22.033Z,64.60
2018-09-20T21:15:50.841Z,64.60
2018-09-20T21:18:19.625Z,65.10
2018-09-20T21:20:48.438Z,64.90
2018-09-20T21:23:17.217Z,64.80
2018-09-20T21:25:45.995Z,64.80
2018-09-20T21:28:14.836Z,64.70
2018-09-20T21:30:43.630Z,64.70
2018-09-20T21:33:12.486Z,64.70
2018-09-20T21:35:41.316Z,64.80
2018-09-20T21:38:10.136Z,64.90
2018-09-20T21:40:39.063Z,64.90
2018-09-20T21:43:07.836Z,65.00
2018-09-20T21:45:36.672Z,65.10
2018-09-20T21:48:05.563Z,65.40
2018-09-20T21:50:34.373Z,65.60
2018-09-20T21:53:03.213Z,65.60
2018-09-20T21:55:32.062Z,65.50
2018-09-20T21:58:00.904Z,65.60
2018-09-20T22:00:29.743Z,65.70
2018-09-20T22:03:03.651Z,65.70
2018-09-20T22:05:33.856Z,66.00
2018-09-20T22:08:02.631Z,66.20
2018-09-20T22:10:31.797Z,66.00
2018-09-20T22:13:00.621Z,66.80
2018-09-20T22:15:30.214Z,65.90
2018-09-20T22:17:59.501Z,66.10
2018-09-20T22:20:30.657Z,66.20
2018-09-20T22:22:59.535Z,66.40
2018-09-20T22:25:28.308Z,66.50
2018-09-20T22:27:57.156Z,66.50
2018-09-20T22:30:25.988Z,66.50
2018-09-20T22:32:54.762Z,66.10
2018-09-20T22:35:23.693Z,66.50
2018-09-20T22:37:52.492Z,66.80
2018-09-20T22:40:21.273Z,66.50
2018-09-20T22:42:50.074Z,67.30
2018-09-20T22:45:18.928Z,67.50
2018-09-20T22:47:47.710Z,67.00
2018-09-20T22:50:16.530Z,67.50
2018-09-20T22:52:45.307Z,67.40
2018-09-20T22:55:14.106Z,67.40
2018-09-20T22:57:42.902Z,67.70
2018-09-20T23:00:11.721Z,67.20
2018-09-20T23:02:40.603Z,67.50
2018-09-20T23:05:09.434Z,67.90
2018-09-20T23:07:38.243Z,67.90
2018-09-20T23:10:07.123Z,68.10
2018-09-20T23:12:35.903Z,68.00
2018-09-20T23:15:04.773Z,68.30
2018-09-20T23:17:33.553Z,68.30
2018-09-20T23:20:02.340Z,68.10
2018-09-20T23:22:31.109Z,68.20
2018-09-20T23:24:59.921Z,68.10
2018-09-20T23:27:28.722Z,68.10
2018-09-20T23:29:57.533Z,68.00
2018-09-20T23:32:26.325Z,68.10
2018-09-20T23:34:55.152Z,68.00
2018-09-20T23:37:23.952Z,68.00
2018-09-20T23:39:52.794Z,68.10
2018-09-20T23:42:21.560Z,67.50
2018-09-20T23:44:50.320Z,68.10
2018-09-20T23:47:19.074Z,68.00
2018-09-20T23:49:47.866Z,68.40
2018-09-20T23:52:16.647Z,68.90
2018-09-20T23:54:45.436Z,68.00
2018-09-20T23:57:14.215Z,67.40
2018-09-20T23:59:42.996Z,68.30
